Time;durP1;ratioP1;P1;durP2;ratioP2;P2;SDS_P1;SDS_P2;PMS_P1;PMS_P2;Temp;Humidity;BMP_temperature;BMP_pressure;BME280_temperature;BME280_humidity;BME280_pressure;Samples;Min_cycle;Max_cycle;Signal;HPM_P1;HPM_P2
2021/07/02 00:01:09;;;;;;;;;;;18.70;63.10;;;;;;1487880;40;20379;-74
2021/07/02 00:02:30;;;;;;;;;;;18.70;63.10;;;;;;1486250;40;19936;-75
2021/07/02 00:03:50;;;;;;;;;;;18.70;63.20;;;;;;1487464;40;20232;-74
2021/07/02 00:05:12;;;;;;;;;;;18.70;63.20;;;;;;1486010;40;19933;-74
2021/07/02 00:06:33;;;;;;;;;;;18.70;63.20;;;;;;1485516;40;19940;-74
2021/07/02 00:07:53;;;;;;;;;;;18.70;63.10;;;;;;1484433;40;19958;-74
2021/07/02 00:09:14;;;;;;;;;;;18.70;63.10;;;;;;1486555;40;19962;-74
2021/07/02 00:10:35;;;;;;;;;;;18.70;63.10;;;;;;1487369;40;19936;-74
2021/07/02 00:11:56;;;;;;;;;;;18.70;63.10;;;;;;1485004;40;20240;-74
2021/07/02 00:13:16;;;;;;;;;;;18.70;63.00;;;;;;1486732;40;19963;-74
2021/07/02 00:14:37;;;;;;;;;;;18.60;63.00;;;;;;1488348;40;19938;-75
2021/07/02 00:15:58;;;;;;;;;;;18.60;63.00;;;;;;1487640;40;19940;-74
2021/07/02 00:17:19;;;;;;;;;;;18.70;63.10;;;;;;1486373;39;20315;-75
2021/07/02 00:18:39;;;;;;;;;;;18.60;63.00;;;;;;1485029;40;19988;-74
2021/07/02 00:20:00;;;;;;;;;;;18.70;63.40;;;;;;1486547;40;19935;-74
2021/07/02 00:21:21;;;;;;;;;;;18.70;63.00;;;;;;1486685;40;19939;-74
2021/07/02 00:22:42;;;;;;;;;;;18.70;63.00;;;;;;1486238;40;19932;-74
2021/07/02 00:24:03;;;;;;;;;;;18.60;63.00;;;;;;1486014;40;19936;-73
2021/07/02 00:25:24;;;;;;;;;;;18.70;63.00;;;;;;1482635;40;20221;-74
2021/07/02 00:26:44;;;;;;;;;;;18.60;63.00;;;;;;1485161;40;19940;-75
2021/07/02 00:28:05;;;;;;;;;;;18.60;63.00;;;;;;1486482;40;19936;-74
2021/07/02 00:29:26;;;;;;;;;;;18.60;63.00;;;;;;1487216;40;19936;-74
2021/07/02 00:30:47;;;;;;;;;;;18.60;63.00;;;;;;1488015;40;20638;-74
2021/07/02 00:32:08;;;;;;;;;;;18.60;63.00;;;;;;1486884;40;19936;-74
2021/07/02 00:33:29;;;;;;;;;;;18.60;63.00;;;;;;1485742;40;20310;-74
2021/07/02 00:34:49;;;;;;;;;;;18.60;63.00;;;;;;1486800;40;19967;-75
2021/07/02 00:36:10;;;;;;;;;;;18.60;63.00;;;;;;1487212;39;19942;-75
2021/07/02 00:37:31;;;;;;;;;;;18.60;63.10;;;;;;1486467;40;19944;-74
2021/07/02 00:38:52;;;;;;;;;;;18.60;63.10;;;;;;1486574;40;19943;-74
2021/07/02 00:40:13;;;;;;;;;;;18.60;63.10;;;;;;1479920;40;19933;-75
2021/07/02 00:41:34;;;;;;;;;;;18.60;63.10;;;;;;1483540;40;20301;-74
2021/07/02 00:42:55;;;;;;;;;;;18.60;63.10;;;;;;1486193;40;19947;-74
2021/07/02 00:44:16;;;;;;;;;;;18.60;63.10;;;;;;1483487;40;19940;-74
2021/07/02 00:45:36;;;;;;;;;;;18.60;63.10;;;;;;1487756;40;20216;-74
2021/07/02 00:46:57;;;;;;;;;;;18.60;63.10;;;;;;1486129;40;19987;-74
2021/07/02 00:48:18;;;;;;;;;;;18.60;63.20;;;;;;1487743;40;19931;-74
2021/07/02 00:49:39;;;;;;;;;;;18.60;63.90;;;;;;1486211;40;19936;-74
2021/07/02 00:51:00;;;;;;;;;;;18.60;63.40;;;;;;1485334;39;19940;-74
2021/07/02 00:52:21;;;;;;;;;;;18.60;63.10;;;;;;1486502;40;19932;-74
2021/07/02 00:53:43;;;;;;;;;;;18.60;63.10;;;;;;1482445;40;19936;-74
2021/07/02 00:55:04;;;;;;;;;;;18.60;63.10;;;;;;1484474;40;20328;-74
2021/07/02 00:56:25;;;;;;;;;;;18.60;63.00;;;;;;1483502;40;19932;-74
2021/07/02 00:57:46;;;;;;;;;;;18.60;63.00;;;;;;1485207;40;20460;-74
2021/07/02 00:59:07;;;;;;;;;;;18.60;63.00;;;;;;1486746;40;19951;-74
2021/07/02 01:00:28;;;;;;;;;;;18.60;63.00;;;;;;1484736;40;20245;-74
2021/07/02 01:01:48;;;;;;;;;;;18.60;63.00;;;;;;1485668;40;19971;-74
2021/07/02 01:03:10;;;;;;;;;;;18.60;63.00;;;;;;1485125;40;20198;-74
2021/07/02 01:04:31;;;;;;;;;;;18.60;63.00;;;;;;1488837;40;19947;-74
2021/07/02 01:05:52;;;;;;;;;;;18.60;63.00;;;;;;1488168;40;20036;-74
2021/07/02 01:07:13;;;;;;;;;;;18.60;62.90;;;;;;1487212;40;20173;-75
2021/07/02 01:08:35;;;;;;;;;;;18.60;62.80;;;;;;1485987;40;19933;-75
2021/07/02 01:09:56;;;;;;;;;;;18.50;62.80;;;;;;1487400;39;19940;-75
2021/07/02 01:11:16;;;;;;;;;;;18.60;62.80;;;;;;1486037;40;19940;-75
2021/07/02 01:12:37;;;;;;;;;;;18.50;62.80;;;;;;1485612;40;19941;-75
2021/07/02 01:13:58;;;;;;;;;;;18.50;62.90;;;;;;1486936;40;19932;-74
2021/07/02 01:15:20;;;;;;;;;;;18.50;62.80;;;;;;1486416;40;19931;-74
2021/07/02 01:16:41;;;;;;;;;;;18.50;62.80;;;;;;1482874;40;19947;-74
2021/07/02 01:18:09;;;;;;;;;;;18.50;62.90;;;;;;1484257;40;19944;-75
2021/07/02 01:19:30;;;;;;;;;;;18.50;62.90;;;;;;1487362;40;19938;-74
2021/07/02 01:20:52;;;;;;;;;;;18.50;62.90;;;;;;1487207;40;19932;-76
2021/07/02 01:22:14;;;;;;;;;;;18.50;62.90;;;;;;1485680;40;19940;-75
2021/07/02 01:23:35;;;;;;;;;;;18.50;62.90;;;;;;1486319;40;19971;-75
2021/07/02 01:24:56;;;;;;;;;;;18.50;62.90;;;;;;1486909;40;19932;-73
2021/07/02 01:26:17;;;;;;;;;;;18.50;62.90;;;;;;1487627;40;19938;-75
2021/07/02 01:27:38;;;;;;;;;;;18.50;62.90;;;;;;1486357;40;19935;-75
2021/07/02 01:28:59;;;;;;;;;;;18.50;62.90;;;;;;1486223;40;19940;-74
2021/07/02 01:30:20;;;;;;;;;;;18.50;62.90;;;;;;1486986;40;19961;-74
2021/07/02 01:31:41;;;;;;;;;;;18.50;62.90;;;;;;1486376;39;20261;-76
2021/07/02 01:33:02;;;;;;;;;;;18.50;62.90;;;;;;1486173;40;19938;-75
2021/07/02 01:34:22;;;;;;;;;;;18.50;62.90;;;;;;1483311;40;19933;-75
2021/07/02 01:35:43;;;;;;;;;;;18.40;62.80;;;;;;1485559;40;19959;-75
2021/07/02 01:37:05;;;;;;;;;;;18.40;62.70;;;;;;1485949;40;20246;-75
2021/07/02 01:38:26;;;;;;;;;;;18.40;62.70;;;;;;1482548;40;19932;-75
2021/07/02 01:39:47;;;;;;;;;;;18.40;62.70;;;;;;1485302;40;19936;-75
2021/07/02 01:41:07;;;;;;;;;;;18.40;62.70;;;;;;1487395;39;19940;-75
2021/07/02 01:42:28;;;;;;;;;;;18.40;62.60;;;;;;1483395;40;19972;-75
2021/07/02 01:43:49;;;;;;;;;;;18.40;62.60;;;;;;1480890;40;19947;-75
2021/07/02 01:45:10;;;;;;;;;;;18.30;62.50;;;;;;1483862;40;20188;-75
2021/07/02 01:46:31;;;;;;;;;;;18.30;62.50;;;;;;1487981;40;19940;-75
2021/07/02 01:47:51;;;;;;;;;;;18.30;62.50;;;;;;1486414;40;19948;-75
2021/07/02 01:49:12;;;;;;;;;;;18.30;62.50;;;;;;1486378;40;19947;-75
2021/07/02 01:50:33;;;;;;;;;;;18.30;62.40;;;;;;1488151;40;20160;-75
2021/07/02 01:51:54;;;;;;;;;;;18.20;62.40;;;;;;1489666;39;20021;-75
2021/07/02 01:53:15;;;;;;;;;;;18.20;62.30;;;;;;1487267;40;20168;-76
2021/07/02 01:54:35;;;;;;;;;;;18.20;62.30;;;;;;1487148;40;20168;-75
2021/07/02 01:55:56;;;;;;;;;;;18.20;62.40;;;;;;1488198;40;19932;-75
2021/07/02 01:57:21;;;;;;;;;;;18.20;62.40;;;;;;1486801;40;20067;-75
2021/07/02 01:58:42;;;;;;;;;;;18.10;62.30;;;;;;1486498;40;20285;-76
2021/07/02 02:00:04;;;;;;;;;;;18.20;62.40;;;;;;1487124;40;19936;-75
2021/07/02 02:01:25;;;;;;;;;;;18.10;62.40;;;;;;1488577;40;19951;-75
2021/07/02 02:02:46;;;;;;;;;;;18.10;62.40;;;;;;1487135;40;19943;-75
2021/07/02 02:04:07;;;;;;;;;;;18.10;62.40;;;;;;1486391;40;19987;-75
2021/07/02 02:05:27;;;;;;;;;;;18.10;62.40;;;;;;1488261;40;20223;-75
2021/07/02 02:06:48;;;;;;;;;;;18.00;62.50;;;;;;1485954;40;19987;-75
2021/07/02 02:08:09;;;;;;;;;;;18.00;62.40;;;;;;1489116;40;19932;-75
2021/07/02 02:09:30;;;;;;;;;;;18.10;62.50;;;;;;1488312;40;19985;-75
2021/07/02 02:10:51;;;;;;;;;;;18.00;62.50;;;;;;1486738;40;19951;-75
2021/07/02 02:12:12;;;;;;;;;;;18.00;62.50;;;;;;1484553;40;20038;-75
2021/07/02 02:13:32;;;;;;;;;;;18.00;62.50;;;;;;1487006;40;20337;-75
2021/07/02 02:14:53;;;;;;;;;;;18.00;62.50;;;;;;1488046;40;19964;-75
2021/07/02 02:16:14;;;;;;;;;;;18.00;62.50;;;;;;1488051;40;19947;-75
2021/07/02 02:17:35;;;;;;;;;;;18.00;62.50;;;;;;1488713;40;19932;-75
2021/07/02 02:18:55;;;;;;;;;;;18.00;62.50;;;;;;1484431;40;19932;-75
2021/07/02 02:20:17;;;;;;;;;;;18.00;62.50;;;;;;1487582;40;19932;-75
2021/07/02 02:21:37;;;;;;;;;;;18.00;62.50;;;;;;1486347;40;19937;-75
2021/07/02 02:22:58;;;;;;;;;;;17.90;62.40;;;;;;1488217;39;19955;-75
2021/07/02 02:24:19;;;;;;;;;;;17.90;62.40;;;;;;1487701;40;19972;-75
2021/07/02 02:25:40;;;;;;;;;;;17.90;62.40;;;;;;1487544;40;19939;-75
2021/07/02 02:27:01;;;;;;;;;;;17.90;62.40;;;;;;1482970;40;20412;-74
2021/07/02 02:28:22;;;;;;;;;;;17.90;62.40;;;;;;1485030;40;19935;-74
2021/07/02 02:29:42;;;;;;;;;;;17.90;62.40;;;;;;1488181;40;20284;-74
2021/07/02 02:31:03;;;;;;;;;;;17.90;63.10;;;;;;1488746;39;20253;-74
2021/07/02 02:32:24;;;;;;;;;;;17.80;62.20;;;;;;1488679;40;19935;-74
2021/07/02 02:33:45;;;;;;;;;;;17.80;62.20;;;;;;1486420;40;20554;-75
2021/07/02 02:35:06;;;;;;;;;;;17.80;62.20;;;;;;1485669;40;19931;-75
2021/07/02 02:36:27;;;;;;;;;;;17.80;62.20;;;;;;1486357;40;19951;-74
2021/07/02 02:37:48;;;;;;;;;;;17.80;62.30;;;;;;1488870;40;19946;-74
2021/07/02 02:39:08;;;;;;;;;;;17.80;62.30;;;;;;1487615;40;19944;-74
2021/07/02 02:40:29;;;;;;;;;;;17.80;62.30;;;;;;1486879;40;19973;-74
2021/07/02 02:41:50;;;;;;;;;;;17.80;62.40;;;;;;1486896;40;19932;-74
2021/07/02 02:43:11;;;;;;;;;;;17.80;62.30;;;;;;1487042;40;20412;-75
2021/07/02 02:44:32;;;;;;;;;;;17.80;62.40;;;;;;1486151;40;19955;-74
2021/07/02 02:45:53;;;;;;;;;;;17.70;62.30;;;;;;1486862;40;20015;-75
2021/07/02 02:47:13;;;;;;;;;;;17.70;62.30;;;;;;1486620;40;19961;-75
2021/07/02 02:48:34;;;;;;;;;;;17.70;62.30;;;;;;1486706;40;19932;-75
2021/07/02 02:49:55;;;;;;;;;;;17.70;62.30;;;;;;1487116;39;20168;-75
2021/07/02 02:51:16;;;;;;;;;;;17.70;62.40;;;;;;1488143;40;19948;-75
2021/07/02 02:52:36;;;;;;;;;;;17.70;62.30;;;;;;1487826;40;19942;-75
2021/07/02 02:53:57;;;;;;;;;;;17.70;62.40;;;;;;1487181;40;19936;-76
2021/07/02 02:55:18;;;;;;;;;;;17.70;62.40;;;;;;1486772;40;20021;-75
2021/07/02 02:57:03;;;;;;;;;;;17.70;62.40;;;;;;1487401;40;19940;-75
2021/07/02 02:58:22;;;;;;;;;;;17.60;63.00;;;;;;1487210;40;19932;-75
2021/07/02 02:59:43;;;;;;;;;;;17.70;62.40;;;;;;1488423;40;20241;-75
2021/07/02 03:01:04;;;;;;;;;;;17.70;62.30;;;;;;1485644;40;20013;-75
2021/07/02 03:02:25;;;;;;;;;;;17.60;62.30;;;;;;1483128;40;19994;-75
2021/07/02 03:03:45;;;;;;;;;;;17.60;62.30;;;;;;1484526;40;19936;-75
2021/07/02 03:05:06;;;;;;;;;;;17.60;62.30;;;;;;1486911;40;19959;-75
2021/07/02 03:06:27;;;;;;;;;;;17.60;62.40;;;;;;1485999;40;19992;-75
2021/07/02 03:07:48;;;;;;;;;;;17.60;62.50;;;;;;1486845;40;19972;-75
2021/07/02 03:09:09;;;;;;;;;;;17.60;62.50;;;;;;1484785;40;19940;-75
2021/07/02 03:10:30;;;;;;;;;;;17.60;62.50;;;;;;1487711;40;20217;-75
2021/07/02 03:11:51;;;;;;;;;;;17.60;62.50;;;;;;1488084;39;19944;-75
2021/07/02 03:13:12;;;;;;;;;;;17.60;62.60;;;;;;1483409;40;19943;-75
2021/07/02 03:14:33;;;;;;;;;;;17.60;62.60;;;;;;1484860;40;19932;-76
2021/07/02 03:15:54;;;;;;;;;;;17.60;62.70;;;;;;1486615;40;19972;-75
2021/07/02 03:17:14;;;;;;;;;;;17.60;62.70;;;;;;1486815;40;19932;-75
2021/07/02 03:18:35;;;;;;;;;;;17.60;62.70;;;;;;1482303;40;20022;-75
2021/07/02 03:19:56;;;;;;;;;;;17.60;62.70;;;;;;1485413;40;19940;-75
2021/07/02 03:21:17;;;;;;;;;;;17.60;62.80;;;;;;1487297;40;19988;-75
2021/07/02 03:22:38;;;;;;;;;;;17.70;62.80;;;;;;1483895;40;20010;-75
2021/07/02 03:23:59;;;;;;;;;;;17.60;62.80;;;;;;1485322;40;19952;-75
2021/07/02 03:25:20;;;;;;;;;;;17.70;62.90;;;;;;1483782;40;19936;-75
2021/07/02 03:26:40;;;;;;;;;;;17.70;62.90;;;;;;1483981;40;20169;-75
2021/07/02 03:28:01;;;;;;;;;;;17.60;62.80;;;;;;1487349;40;19944;-75
2021/07/02 03:29:22;;;;;;;;;;;17.70;62.90;;;;;;1482926;40;20040;-75
2021/07/02 03:30:43;;;;;;;;;;;17.70;63.00;;;;;;1486066;39;19940;-75
2021/07/02 03:32:04;;;;;;;;;;;17.70;62.90;;;;;;1488073;40;20153;-75
2021/07/02 03:33:24;;;;;;;;;;;17.70;63.00;;;;;;1488041;40;20219;-75
2021/07/02 03:34:47;;;;;;;;;;;17.70;62.90;;;;;;1488006;40;19932;-75
2021/07/02 03:36:08;;;;;;;;;;;17.70;62.90;;;;;;1483919;40;19932;-75
2021/07/02 03:37:29;;;;;;;;;;;17.70;62.90;;;;;;1486341;40;19951;-74
2021/07/02 03:38:50;;;;;;;;;;;17.70;62.90;;;;;;1487397;39;19932;-75
2021/07/02 03:40:11;;;;;;;;;;;17.70;62.80;;;;;;1488358;40;19964;-75
2021/07/02 03:41:32;;;;;;;;;;;17.70;62.90;;;;;;1485787;40;19998;-75
2021/07/02 03:42:53;;;;;;;;;;;17.70;62.80;;;;;;1487471;40;19940;-75
2021/07/02 03:44:14;;;;;;;;;;;17.70;62.80;;;;;;1487818;40;19956;-75
2021/07/02 03:45:35;;;;;;;;;;;17.70;62.80;;;;;;1487731;40;19944;-75
2021/07/02 03:46:56;;;;;;;;;;;17.70;62.80;;;;;;1485151;40;20261;-75
2021/07/02 03:48:16;;;;;;;;;;;17.70;62.80;;;;;;1486974;40;20016;-74
2021/07/02 03:49:37;;;;;;;;;;;17.70;62.90;;;;;;1488108;40;19932;-75
2021/07/02 03:50:58;;;;;;;;;;;17.70;62.90;;;;;;1487530;40;19936;-75
2021/07/02 03:52:19;;;;;;;;;;;17.70;62.80;;;;;;1486442;39;19942;-75
2021/07/02 03:53:40;;;;;;;;;;;17.70;62.80;;;;;;1486505;40;19938;-75
2021/07/02 03:55:01;;;;;;;;;;;17.70;62.80;;;;;;1487102;40;19932;-75
2021/07/02 03:56:21;;;;;;;;;;;17.80;62.90;;;;;;1488334;40;20262;-75
2021/07/02 03:57:42;;;;;;;;;;;17.70;62.80;;;;;;1486057;40;20284;-75
2021/07/02 03:59:03;;;;;;;;;;;17.70;62.90;;;;;;1487258;39;20354;-75
2021/07/02 04:00:24;;;;;;;;;;;17.80;62.90;;;;;;1485857;40;19943;-75
2021/07/02 04:01:44;;;;;;;;;;;17.70;62.80;;;;;;1484817;40;19932;-75
2021/07/02 04:03:05;;;;;;;;;;;17.70;62.80;;;;;;1486948;40;19936;-75
2021/07/02 04:04:26;;;;;;;;;;;17.80;62.80;;;;;;1487614;40;19964;-75
2021/07/02 04:05:47;;;;;;;;;;;17.70;62.80;;;;;;1487215;39;19954;-75
2021/07/02 04:07:09;;;;;;;;;;;17.70;62.80;;;;;;1486949;39;19948;-74
2021/07/02 04:08:29;;;;;;;;;;;17.70;62.80;;;;;;1485660;40;19956;-75
2021/07/02 04:09:51;;;;;;;;;;;17.70;62.80;;;;;;1487770;40;20015;-75
2021/07/02 04:11:11;;;;;;;;;;;17.70;62.70;;;;;;1485818;40;19933;-75
2021/07/02 04:12:32;;;;;;;;;;;17.70;62.70;;;;;;1485565;40;19944;-75
2021/07/02 04:13:53;;;;;;;;;;;17.50;62.60;;;;;;1484331;40;19936;-75
2021/07/02 04:15:14;;;;;;;;;;;17.70;62.70;;;;;;1486900;40;19942;-75
2021/07/02 04:16:34;;;;;;;;;;;17.70;62.70;;;;;;1485969;40;20280;-75
2021/07/02 04:17:55;;;;;;;;;;;17.70;62.70;;;;;;1486630;40;20252;-75
2021/07/02 04:19:16;;;;;;;;;;;17.70;63.50;;;;;;1481050;40;19940;-75
2021/07/02 04:20:38;;;;;;;;;;;17.70;62.80;;;;;;1484347;40;19972;-75
2021/07/02 04:21:58;;;;;;;;;;;19.10;63.70;;;;;;1486256;40;19940;-75
2021/07/02 04:23:19;;;;;;;;;;;17.70;62.80;;;;;;1487601;40;20362;-75
2021/07/02 04:24:40;;;;;;;;;;;17.70;62.80;;;;;;1486209;39;19932;-75
2021/07/02 04:26:01;;;;;;;;;;;17.70;62.80;;;;;;1487658;40;19944;-75
2021/07/02 04:27:21;;;;;;;;;;;17.70;62.90;;;;;;1486651;40;19952;-75
2021/07/02 04:28:42;;;;;;;;;;;17.70;62.90;;;;;;1481889;40;19995;-74
2021/07/02 04:30:03;;;;;;;;;;;17.70;62.90;;;;;;1483830;40;19933;-75
2021/07/02 04:31:25;;;;;;;;;;;17.80;63.00;;;;;;1486907;40;20412;-75
2021/07/02 04:32:45;;;;;;;;;;;17.80;62.90;;;;;;1485321;40;20494;-75
2021/07/02 04:34:06;;;;;;;;;;;17.80;62.90;;;;;;1486382;40;19936;-75
2021/07/02 04:35:27;;;;;;;;;;;17.80;62.90;;;;;;1485701;40;19951;-74
2021/07/02 04:36:48;;;;;;;;;;;17.80;62.90;;;;;;1486524;40;19939;-75
2021/07/02 04:38:09;;;;;;;;;;;17.80;63.00;;;;;;1485999;40;20264;-75
2021/07/02 04:39:29;;;;;;;;;;;17.80;63.00;;;;;;1487281;40;19954;-75
2021/07/02 04:40:50;;;;;;;;;;;17.80;63.00;;;;;;1485694;40;20308;-75
2021/07/02 04:42:11;;;;;;;;;;;17.80;63.10;;;;;;1485351;40;19944;-75
2021/07/02 04:43:32;;;;;;;;;;;17.80;63.10;;;;;;1481851;40;20022;-75
2021/07/02 04:44:53;;;;;;;;;;;17.90;63.20;;;;;;1485593;40;19934;-75
2021/07/02 04:46:13;;;;;;;;;;;17.90;63.20;;;;;;1487577;40;19956;-75
2021/07/02 04:47:34;;;;;;;;;;;17.90;63.20;;;;;;1486856;39;20323;-76
2021/07/02 04:48:55;;;;;;;;;;;17.90;63.20;;;;;;1487053;40;19936;-75
2021/07/02 04:50:16;;;;;;;;;;;17.90;63.10;;;;;;1487291;39;19940;-75
2021/07/02 04:51:37;;;;;;;;;;;18.00;63.30;;;;;;1486620;40;19936;-75
2021/07/02 04:52:57;;;;;;;;;;;18.00;63.20;;;;;;1488448;40;19951;-75
2021/07/02 04:54:18;;;;;;;;;;;18.00;63.20;;;;;;1489136;40;20294;-76
2021/07/02 04:55:39;;;;;;;;;;;18.00;63.20;;;;;;1488554;40;19931;-76
2021/07/02 04:57:01;;;;;;;;;;;18.00;63.20;;;;;;1488514;40;19962;-75
2021/07/02 04:58:22;;;;;;;;;;;18.00;63.20;;;;;;1487508;40;19943;-75
2021/07/02 04:59:45;;;;;;;;;;;18.00;63.20;;;;;;1488592;40;19961;-75
2021/07/02 05:01:07;;;;;;;;;;;18.00;63.20;;;;;;1488337;40;19936;-75
2021/07/02 05:02:27;;;;;;;;;;;18.10;63.30;;;;;;1486697;40;19947;-75
2021/07/02 05:03:49;;;;;;;;;;;18.10;63.30;;;;;;1487777;39;19942;-76
2021/07/02 05:05:10;;;;;;;;;;;18.10;63.20;;;;;;1486853;39;19936;-75
2021/07/02 05:06:32;;;;;;;;;;;18.10;63.10;;;;;;1486395;40;19936;-75
2021/07/02 05:07:53;;;;;;;;;;;18.10;63.20;;;;;;1486608;40;19999;-76
2021/07/02 05:09:14;;;;;;;;;;;18.20;63.20;;;;;;1487034;40;19972;-75
2021/07/02 05:10:35;;;;;;;;;;;18.10;63.10;;;;;;1486332;40;19940;-75
2021/07/02 05:11:56;;;;;;;;;;;18.10;63.10;;;;;;1487467;40;19943;-75
2021/07/02 05:13:16;;;;;;;;;;;18.20;63.20;;;;;;1486614;40;20651;-75
2021/07/02 05:14:38;;;;;;;;;;;18.20;63.20;;;;;;1487953;40;19986;-75
2021/07/02 05:15:59;;;;;;;;;;;18.20;63.20;;;;;;1486577;40;20040;-76
2021/07/02 05:17:20;;;;;;;;;;;18.20;63.20;;;;;;1487655;39;19947;-75
2021/07/02 05:18:40;;;;;;;;;;;18.20;63.30;;;;;;1485553;40;19933;-76
2021/07/02 05:20:02;;;;;;;;;;;18.30;63.20;;;;;;1486513;40;19939;-75
2021/07/02 05:21:23;;;;;;;;;;;18.30;63.30;;;;;;1488198;40;19936;-75
2021/07/02 05:22:44;;;;;;;;;;;18.50;63.40;;;;;;1487441;40;20270;-74
2021/07/02 05:24:04;;;;;;;;;;;18.30;63.20;;;;;;1488683;40;19943;-75
2021/07/02 05:25:25;;;;;;;;;;;18.30;63.20;;;;;;1487496;40;19944;-75
2021/07/02 05:26:46;;;;;;;;;;;18.30;63.10;;;;;;1487988;39;20037;-75
2021/07/02 05:28:07;;;;;;;;;;;18.30;63.00;;;;;;1488978;39;20268;-75
2021/07/02 05:29:28;;;;;;;;;;;18.30;63.10;;;;;;1485990;40;19944;-75
2021/07/02 05:30:48;;;;;;;;;;;18.30;63.00;;;;;;1485861;40;19943;-75
2021/07/02 05:32:09;;;;;;;;;;;18.40;63.00;;;;;;1488282;40;20552;-75
2021/07/02 05:33:30;;;;;;;;;;;18.40;63.00;;;;;;1488338;40;19952;-75
2021/07/02 05:34:51;;;;;;;;;;;18.40;63.70;;;;;;1486155;40;20190;-75
2021/07/02 05:36:12;;;;;;;;;;;18.40;63.00;;;;;;1486494;40;19948;-75
2021/07/02 05:37:33;;;;;;;;;;;18.40;63.00;;;;;;1487791;40;20223;-75
2021/07/02 05:38:54;;;;;;;;;;;18.40;62.90;;;;;;1485702;40;20262;-75
2021/07/02 05:40:16;;;;;;;;;;;18.50;63.00;;;;;;1487316;40;20189;-75
2021/07/02 05:41:36;;;;;;;;;;;18.50;63.00;;;;;;1487677;40;19952;-75
2021/07/02 05:42:57;;;;;;;;;;;18.50;62.90;;;;;;1487474;40;20241;-75
2021/07/02 05:44:18;;;;;;;;;;;18.80;63.20;;;;;;1487198;39;19943;-75
2021/07/02 05:45:40;;;;;;;;;;;18.50;62.90;;;;;;1484005;40;19952;-75
2021/07/02 05:47:01;;;;;;;;;;;18.50;63.00;;;;;;1485565;40;19998;-75
2021/07/02 05:48:23;;;;;;;;;;;18.60;63.10;;;;;;1484430;40;19940;-75
2021/07/02 05:49:44;;;;;;;;;;;18.60;63.20;;;;;;1484988;40;19942;-75
2021/07/02 05:51:05;;;;;;;;;;;18.60;63.20;;;;;;1487485;39;19948;-75
2021/07/02 05:52:26;;;;;;;;;;;18.60;63.10;;;;;;1485794;39;19959;-75
2021/07/02 05:53:46;;;;;;;;;;;18.60;63.00;;;;;;1486942;40;19940;-75
2021/07/02 05:55:08;;;;;;;;;;;18.60;63.00;;;;;;1487467;40;20019;-75
2021/07/02 05:56:28;;;;;;;;;;;18.60;62.90;;;;;;1487919;40;19954;-74
2021/07/02 05:57:50;;;;;;;;;;;18.60;62.80;;;;;;1487295;40;19968;-76
2021/07/02 05:59:10;;;;;;;;;;;18.70;62.90;;;;;;1483249;40;19941;-75
2021/07/02 06:00:31;;;;;;;;;;;18.70;62.80;;;;;;1485293;40;19936;-76
2021/07/02 06:01:52;;;;;;;;;;;18.70;62.80;;;;;;1486972;39;20271;-74
2021/07/02 06:03:13;;;;;;;;;;;18.70;62.70;;;;;;1486178;40;19943;-75
2021/07/02 06:04:34;;;;;;;;;;;18.70;62.70;;;;;;1486667;40;19964;-75
2021/07/02 06:05:55;;;;;;;;;;;18.70;62.70;;;;;;1482329;40;19933;-75
2021/07/02 06:07:16;;;;;;;;;;;18.70;62.70;;;;;;1484143;40;19932;-75
2021/07/02 06:08:36;;;;;;;;;;;18.70;62.70;;;;;;1483090;40;19932;-75
2021/07/02 06:09:57;;;;;;;;;;;18.70;62.70;;;;;;1484847;39;19940;-75
2021/07/02 06:11:18;;;;;;;;;;;18.70;62.80;;;;;;1485519;40;20417;-75
2021/07/02 06:12:39;;;;;;;;;;;18.70;62.70;;;;;;1486781;40;20114;-75
2021/07/02 06:14:00;;;;;;;;;;;18.70;62.70;;;;;;1485643;40;19939;-75
2021/07/02 06:15:21;;;;;;;;;;;18.70;62.80;;;;;;1486941;40;19932;-75
2021/07/02 06:16:42;;;;;;;;;;;18.70;62.70;;;;;;1486033;40;19940;-75
2021/07/02 06:18:06;;;;;;;;;;;18.70;62.70;;;;;;1486162;40;20049;-75
2021/07/02 06:19:27;;;;;;;;;;;18.70;62.70;;;;;;1486982;39;19936;-75
2021/07/02 06:20:52;;;;;;;;;;;18.70;62.70;;;;;;1486563;40;19951;-75
2021/07/02 06:22:12;;;;;;;;;;;18.70;62.70;;;;;;1487749;39;19943;-75
2021/07/02 06:23:34;;;;;;;;;;;18.70;62.70;;;;;;1487033;40;20250;-75
2021/07/02 06:24:55;;;;;;;;;;;18.70;62.70;;;;;;1486640;40;19944;-75
2021/07/02 06:26:16;;;;;;;;;;;18.70;62.80;;;;;;1486246;40;20137;-75
2021/07/02 06:27:37;;;;;;;;;;;18.80;63.00;;;;;;1485258;40;19936;-75
2021/07/02 06:28:58;;;;;;;;;;;18.80;63.10;;;;;;1487315;40;19935;-75
2021/07/02 06:30:19;;;;;;;;;;;18.80;63.10;;;;;;1486724;40;20028;-75
2021/07/02 06:31:39;;;;;;;;;;;18.80;63.30;;;;;;1486454;40;19932;-75
2021/07/02 06:33:00;;;;;;;;;;;18.90;63.30;;;;;;1486849;40;20169;-75
2021/07/02 06:34:21;;;;;;;;;;;18.90;63.40;;;;;;1485373;40;19932;-75
2021/07/02 06:35:42;;;;;;;;;;;18.90;63.40;;;;;;1487525;39;19943;-75
2021/07/02 06:37:03;;;;;;;;;;;18.90;63.40;;;;;;1486831;40;19940;-75
2021/07/02 06:38:24;;;;;;;;;;;18.90;63.40;;;;;;1486885;40;20261;-75
2021/07/02 06:39:44;;;;;;;;;;;19.00;63.40;;;;;;1482548;40;20030;-75
2021/07/02 06:41:05;;;;;;;;;;;19.00;63.40;;;;;;1484991;39;19931;-75
2021/07/02 06:42:26;;;;;;;;;;;19.00;63.20;;;;;;1487087;40;19944;-76
2021/07/02 06:43:47;;;;;;;;;;;19.00;63.20;;;;;;1487509;40;19936;-75
2021/07/02 06:45:08;;;;;;;;;;;19.00;63.10;;;;;;1485520;40;19940;-75
2021/07/02 06:46:32;;;;;;;;;;;19.00;63.00;;;;;;1484093;40;19942;-76
2021/07/02 06:47:57;;;;;;;;;;;19.10;63.00;;;;;;1480750;40;20394;-75
2021/07/02 06:49:18;;;;;;;;;;;19.10;63.00;;;;;;1485735;39;19940;-75
2021/07/02 06:50:40;;;;;;;;;;;19.10;63.00;;;;;;1485091;39;19944;-74
2021/07/02 06:52:01;;;;;;;;;;;19.10;63.10;;;;;;1487523;39;20001;-75
2021/07/02 06:53:23;;;;;;;;;;;19.10;63.10;;;;;;1486466;39;19944;-75
2021/07/02 06:54:43;;;;;;;;;;;19.10;63.20;;;;;;1487134;40;19941;-74
2021/07/02 06:56:04;;;;;;;;;;;19.20;63.40;;;;;;1486425;40;19941;-74
2021/07/02 06:57:25;;;;;;;;;;;19.20;63.50;;;;;;1486320;40;19933;-74
2021/07/02 06:58:49;;;;;;;;;;;19.20;63.60;;;;;;1484747;40;20358;-75
2021/07/02 07:00:10;;;;;;;;;;;19.20;63.60;;;;;;1485245;40;19936;-74
2021/07/02 07:01:31;;;;;;;;;;;19.30;63.60;;;;;;1484652;40;20288;-75
2021/07/02 07:02:52;;;;;;;;;;;19.30;63.60;;;;;;1486292;40;19940;-75
2021/07/02 07:04:12;;;;;;;;;;;19.40;63.60;;;;;;1486530;40;19952;-73
2021/07/02 07:05:34;;;;;;;;;;;19.40;63.60;;;;;;1485788;40;20069;-75
2021/07/02 07:06:55;;;;;;;;;;;19.50;63.50;;;;;;1486635;40;19951;-74
2021/07/02 07:08:15;;;;;;;;;;;19.50;63.50;;;;;;1487711;40;19932;-74
2021/07/02 07:09:36;;;;;;;;;;;19.50;63.50;;;;;;1486895;40;19980;-74
2021/07/02 07:10:57;;;;;;;;;;;19.60;63.60;;;;;;1487622;40;19932;-74
2021/07/02 07:12:18;;;;;;;;;;;19.60;63.60;;;;;;1487679;39;19944;-74
2021/07/02 07:13:41;;;;;;;;;;;19.70;63.60;;;;;;1487131;39;19940;-74
2021/07/02 07:15:03;;;;;;;;;;;19.70;63.60;;;;;;1487572;40;19933;-74
2021/07/02 07:16:23;;;;;;;;;;;19.70;63.40;;;;;;1485167;40;19944;-74
2021/07/02 07:17:44;;;;;;;;;;;19.70;63.10;;;;;;1487202;40;19942;-74
2021/07/02 07:19:05;;;;;;;;;;;19.80;63.20;;;;;;1487118;40;20511;-74
2021/07/02 07:20:26;;;;;;;;;;;19.90;63.20;;;;;;1486990;40;19950;-75
2021/07/02 07:21:46;;;;;;;;;;;19.90;63.10;;;;;;1487516;40;19940;-74
2021/07/02 07:23:07;;;;;;;;;;;20.00;63.30;;;;;;1486003;40;19948;-74
2021/07/02 07:24:28;;;;;;;;;;;20.00;63.20;;;;;;1485030;40;20184;-74
2021/07/02 07:25:49;;;;;;;;;;;20.00;63.10;;;;;;1484262;40;19932;-74
2021/07/02 07:27:10;;;;;;;;;;;20.10;63.10;;;;;;1486486;40;19979;-74
2021/07/02 07:28:31;;;;;;;;;;;20.10;63.10;;;;;;1486451;40;19954;-74
2021/07/02 07:29:52;;;;;;;;;;;20.20;63.20;;;;;;1486951;39;20028;-74
2021/07/02 07:31:13;;;;;;;;;;;20.20;63.10;;;;;;1481586;40;19939;-74
2021/07/02 07:32:36;;;;;;;;;;;21.10;63.80;;;;;;1486077;40;19940;-74
2021/07/02 07:33:58;;;;;;;;;;;20.50;63.00;;;;;;1486977;40;20006;-75
2021/07/02 07:35:30;;;;;;;;;;;20.30;62.70;;;;;;1484905;40;19936;-75
2021/07/02 07:36:55;;;;;;;;;;;20.40;62.80;;;;;;1487617;40;19951;-74
2021/07/02 07:38:17;;;;;;;;;;;20.50;62.70;;;;;;1490238;40;19951;-74
2021/07/02 07:39:38;;;;;;;;;;;20.50;62.80;;;;;;1486037;40;19949;-75
2021/07/02 07:40:59;;;;;;;;;;;20.50;62.70;;;;;;1486562;40;19940;-74
2021/07/02 07:42:19;;;;;;;;;;;20.60;62.50;;;;;;1489146;40;19940;-74
2021/07/02 07:43:40;;;;;;;;;;;20.60;62.60;;;;;;1487016;40;19936;-75
2021/07/02 07:45:01;;;;;;;;;;;20.60;62.50;;;;;;1486536;40;19936;-74
2021/07/02 07:46:24;;;;;;;;;;;20.60;62.30;;;;;;1486861;40;20029;-74
2021/07/02 07:47:45;;;;;;;;;;;20.70;62.40;;;;;;1487001;40;20065;-74
2021/07/02 07:49:06;;;;;;;;;;;20.70;62.40;;;;;;1486926;39;19955;-74
2021/07/02 07:50:29;;;;;;;;;;;20.70;62.00;;;;;;1486197;40;20339;-75
2021/07/02 07:51:56;;;;;;;;;;;20.80;62.10;;;;;;1486236;39;19952;-74